Airfield :
LOGIN :

Register | Disclaimer

   EN    FR    IT 

 










Legend :    VFR   Marginal VFR   IFR   Intensive IFR   Very Intensive IFR
Visi :
Ceiling :
>= 8 km
>= 3000ft
5 to 8 km
1000 to 3000 ft
1500m to 5 km
500 to 1000 ft
800 to 1500m
200 to 500 ft
< 800m
< 200 ft
Symbols :   Thunderstorms  Fog  Heavy snow  Heavy precipitations  Wind > 20 kt
SIGMETs :     Misc.  Thunderstorms  Icing  Turbulence  Mountain Waves  Volcanic Ashes







- Airport Elevation : 0 ft


ETEB - Ansbach Army Heliport

CURRENT METAR :
  • 141856Z AUTO 22004KT 9999 SCT041 SCT060 BKN095 18/13 A3007 RMK AO2 SLP183 T01810125 $

EXPIRED METARs :
  • 141756Z AUTO 28009KT 9999 OVC070 20/12 A3004 RMK AO2 SLP172 T01990124 10228 20194 52007 $
  • 141656Z AUTO 27005KT 9999 FEW100 20/13 A3003 RMK AO2 SLP171 T01980125 $

TAF AMD TAF ETEB
Valid from the 14 at 13:00 until the 15 at 19:00 UTC


141324Z 1413/1519 28012KT 9999 BKN060 QNH2999INS
BECMG 1501/1502 27006KT 6000 BR BKN020 QNH3002INS
BECMG 1509/1510 VRB06KT 9000 -SHRA BKN030 QNH3016INS
BECMG 1512/1513 28009KT 9999 NSW SCT040 QNH3013INS TX24/1513Z TN15/1504Z
No reported NOTAMs for that airfield.



MET'MAP, your aeronautical weather chart ! - Copyright ORBIFLY December 2007 - Disclaimer

ORBIFLY MET'MAP TEAM :

Programming & Development : Alexandra Zaïnal
Concept & Development : Baudouin d'Aumeries
Co-Development & Prog : Marc-Olivier Méhu
Technical & hardware support : Manuel Goepfert

Contact : metmap@orbifly.com




SOURCES & CREDITS :

   NOAA